Time;durP1;ratioP1;P1;durP2;ratioP2;P2;SDS_P1;SDS_P2;PMS_P1;PMS_P2;Temp;Humidity;BMP_temperature;BMP_pressure;BME280_temperature;BME280_humidity;BME280_pressure;Samples;Min_cycle;Max_cycle;Signal;HPM_P1;HPM_P2
2023/05/20 00:01:53;;;;;;;21.35;6.97;;;12.70;99.90;;;;;;4936891;29;20196;-79
2023/05/20 00:04:19;;;;;;;19.10;6.65;;;12.70;99.90;;;;;;4920936;29;20234;-79
2023/05/20 00:06:45;;;;;;;16.48;6.57;;;12.60;99.90;;;;;;4920817;29;20191;-79
2023/05/20 00:09:10;;;;;;;17.92;7.05;;;12.60;99.90;;;;;;4952314;29;20202;-79
2023/05/20 00:11:36;;;;;;;18.27;6.80;;;12.60;99.90;;;;;;4936473;29;20289;-79
2023/05/20 00:14:02;;;;;;;23.23;7.47;;;12.60;99.90;;;;;;4936882;29;20193;-79
2023/05/20 00:16:28;;;;;;;16.70;6.80;;;12.50;99.90;;;;;;4936402;29;20629;-80
2023/05/20 00:18:55;;;;;;;18.13;6.78;;;12.50;99.90;;;;;;4936287;29;20219;-80
2023/05/20 00:21:21;;;;;;;16.27;6.65;;;12.50;99.90;;;;;;4936951;29;20758;-80
2023/05/20 00:23:47;;;;;;;17.52;7.25;;;12.50;99.90;;;;;;4931119;29;20282;-79
2023/05/20 00:26:13;;;;;;;17.65;7.50;;;12.40;99.90;;;;;;4932986;29;20198;-79
2023/05/20 00:28:40;;;;;;;20.45;7.22;;;12.40;99.90;;;;;;4918481;29;20190;-80
2023/05/20 00:31:06;;;;;;;19.60;6.97;;;12.40;99.90;;;;;;4933038;29;20192;-80
2023/05/20 00:33:32;;;;;;;23.63;7.28;;;12.40;99.90;;;;;;4932985;29;20184;-80
2023/05/20 00:35:57;;;;;;;16.70;7.25;;;12.40;99.90;;;;;;4918892;29;20292;-80
2023/05/20 00:38:23;;;;;;;16.45;6.65;;;12.40;99.90;;;;;;4951269;29;20194;-80
2023/05/20 00:40:49;;;;;;;21.33;7.20;;;12.40;99.90;;;;;;4951901;29;20243;-80
2023/05/20 00:43:15;;;;;;;18.88;7.28;;;12.40;99.90;;;;;;4935873;29;20258;-80
2023/05/20 00:45:41;;;;;;;14.68;6.65;;;12.30;99.90;;;;;;4917598;29;20794;-80
2023/05/20 00:48:08;;;;;;;19.40;7.25;;;12.30;99.90;;;;;;4922293;29;20180;-81
2023/05/20 00:50:34;;;;;;;18.13;6.88;;;12.40;99.90;;;;;;4950530;29;20233;-80
2023/05/20 00:53:00;;;;;;;12.95;6.43;;;12.30;99.90;;;;;;4931769;29;20318;-81
2023/05/20 00:55:26;;;;;;;16.27;6.63;;;12.30;99.90;;;;;;4951505;29;20653;-79
2023/05/20 00:57:53;;;;;;;18.10;7.00;;;12.30;99.90;;;;;;4935543;29;20218;-79
2023/05/20 01:00:19;;;;;;;19.58;6.72;;;12.30;99.90;;;;;;4951343;28;20222;-79
2023/05/20 01:02:44;;;;;;;15.38;6.60;;;12.30;99.90;;;;;;4916280;29;20184;-79
2023/05/20 01:05:10;;;;;;;18.40;6.90;;;12.30;99.90;;;;;;4924260;29;20685;-79
2023/05/20 01:07:36;;;;;;;15.35;6.72;;;12.30;99.90;;;;;;4921917;29;20202;-79
2023/05/20 01:10:02;;;;;;;16.15;6.72;;;12.30;99.90;;;;;;4919713;29;20247;-85
2023/05/20 01:12:41;;;;;;;12.45;6.10;;;12.30;99.90;;;;;;4919517;29;20556;-80
2023/05/20 01:15:09;;;;;;;14.27;6.18;;;12.30;99.90;;;;;;4950379;29;20187;-81
2023/05/20 01:17:40;;;;;;;19.33;6.88;;;12.20;99.90;;;;;;4928003;29;20202;-80
2023/05/20 01:20:11;;;;;;;16.33;6.28;;;12.20;99.90;;;;;;4936256;29;20207;-80
2023/05/20 01:22:38;;;;;;;18.48;6.45;;;12.20;99.90;;;;;;4919742;29;20532;-80
2023/05/20 01:25:04;;;;;;;16.38;6.00;;;12.20;99.90;;;;;;4935151;29;20175;-80
2023/05/20 01:27:30;;;;;;;14.60;6.50;;;12.20;99.90;;;;;;4931359;29;20255;-80
2023/05/20 01:29:56;;;;;;;12.88;6.28;;;12.20;99.90;;;;;;4930696;29;20544;-80
2023/05/20 01:32:36;;;;;;;13.35;6.30;;;12.20;99.90;;;;;;4934122;29;20618;-81
2023/05/20 01:35:03;;;;;;;13.25;6.03;;;12.20;99.90;;;;;;4936237;29;20191;-81
2023/05/20 01:37:30;;;;;;;17.08;6.60;;;12.20;99.90;;;;;;4926164;29;20184;-80
2023/05/20 01:39:57;;;;;;;15.15;6.50;;;12.20;99.90;;;;;;4950631;29;20210;-80
2023/05/20 01:42:26;;;;;;;13.23;6.65;;;12.20;99.90;;;;;;4919459;29;20650;-80
2023/05/20 01:44:52;;;;;;;12.10;6.30;;;12.10;99.90;;;;;;4930423;29;20668;-80
2023/05/20 01:47:18;;;;;;;12.88;6.18;;;12.10;99.90;;;;;;4934426;29;20191;-80
2023/05/20 01:49:48;;;;;;;13.85;5.97;;;12.10;99.90;;;;;;4935707;29;20548;-80
2023/05/20 01:52:14;;;;;;;13.40;6.13;;;12.10;99.90;;;;;;4934194;29;20251;-80
2023/05/20 01:54:40;;;;;;;19.35;6.35;;;12.10;99.90;;;;;;4921034;29;20276;-80
2023/05/20 01:57:06;;;;;;;13.15;6.22;;;12.10;99.90;;;;;;4942426;29;20183;-80
2023/05/20 01:59:31;;;;;;;14.05;6.07;;;12.10;99.90;;;;;;4934917;29;20246;-80
2023/05/20 02:01:58;;;;;;;17.05;6.68;;;12.10;99.90;;;;;;4919363;29;20285;-80
2023/05/20 02:04:24;;;;;;;10.60;6.70;;;12.00;99.90;;;;;;4918500;29;20234;-80
2023/05/20 02:06:50;;;;;;;14.35;6.47;;;12.00;99.90;;;;;;4936154;29;20183;-80
2023/05/20 02:09:17;;;;;;;11.65;6.68;;;12.00;99.90;;;;;;4921007;29;20196;-80
2023/05/20 02:11:43;;;;;;;13.43;6.88;;;12.00;99.90;;;;;;4936850;29;20194;-80
2023/05/20 02:14:09;;;;;;;13.98;6.18;;;11.90;99.90;;;;;;4954011;29;20187;-80
2023/05/20 02:16:35;;;;;;;14.40;6.32;;;11.90;99.90;;;;;;4953995;29;20226;-80
2023/05/20 02:19:00;;;;;;;14.55;6.32;;;11.90;99.90;;;;;;4954190;29;20195;-80
2023/05/20 02:21:27;;;;;;;12.35;6.18;;;11.80;99.90;;;;;;4906704;29;20215;-80
2023/05/20 02:23:53;;;;;;;12.98;6.38;;;11.90;99.90;;;;;;4938413;29;20190;-79
2023/05/20 02:26:19;;;;;;;16.50;6.53;;;11.80;99.90;;;;;;4938193;29;20238;-80
2023/05/20 02:28:49;;;;;;;8.93;5.65;;;11.80;99.90;;;;;;4922160;29;20209;-79
2023/05/20 02:31:15;;;;;;;12.90;5.95;;;11.80;99.90;;;;;;4937185;29;20534;-80
2023/05/20 02:33:41;;;;;;;18.25;5.93;;;11.80;99.90;;;;;;4953629;29;20198;-80
2023/05/20 02:36:07;;;;;;;12.52;5.55;;;11.80;99.90;;;;;;4921911;29;20187;-80
2023/05/20 02:38:33;;;;;;;13.35;5.60;;;11.80;99.90;;;;;;4922060;29;20215;-80
2023/05/20 02:40:59;;;;;;;13.65;6.55;;;11.70;99.90;;;;;;4939162;29;20273;-80
2023/05/20 02:43:25;;;;;;;9.98;5.68;;;11.70;99.90;;;;;;4905586;29;20740;-83
2023/05/20 02:45:51;;;;;;;14.30;5.97;;;11.70;99.90;;;;;;4933566;29;20238;-79
2023/05/20 02:48:17;;;;;;;10.88;5.13;;;11.70;99.90;;;;;;4939054;29;20211;-80
2023/05/20 02:50:44;;;;;;;11.63;5.78;;;11.70;99.90;;;;;;4937774;29;20293;-79
2023/05/20 02:53:09;;;;;;;10.30;5.53;;;11.70;99.90;;;;;;4937497;29;20238;-79
2023/05/20 02:55:36;;;;;;;10.10;5.10;;;11.70;99.90;;;;;;4937838;29;20195;-79
2023/05/20 02:58:02;;;;;;;13.57;5.22;;;11.70;99.90;;;;;;4921908;29;20688;-79
2023/05/20 03:00:39;;;;;;;8.70;5.15;;;11.70;99.90;;;;;;4918945;29;20658;-80
2023/05/20 03:03:06;;;;;;;11.55;5.40;;;11.70;99.90;;;;;;4908854;29;20214;-79
2023/05/20 03:05:36;;;;;;;19.20;5.30;;;11.70;99.90;;;;;;4931219;29;20230;-79
2023/05/20 03:08:08;;;;;;;8.90;5.07;;;11.70;99.90;;;;;;4929476;29;20219;-79
2023/05/20 03:10:38;;;;;;;11.00;5.00;;;11.70;99.90;;;;;;4922732;29;20246;-79
2023/05/20 03:13:10;;;;;;;10.52;4.70;;;11.70;99.90;;;;;;4928781;29;20219;-79
2023/05/20 03:15:46;;;;;;;6.80;4.50;;;11.70;99.90;;;;;;4926515;29;20191;-79
2023/05/20 03:18:12;;;;;;;10.18;4.85;;;11.60;99.90;;;;;;4935381;29;20182;-79
2023/05/20 03:20:40;;;;;;;7.82;4.78;;;11.60;99.90;;;;;;4937567;29;20218;-79
2023/05/20 03:23:06;;;;;;;8.95;4.88;;;11.70;99.90;;;;;;4920551;29;20210;-80
2023/05/20 03:25:35;;;;;;;9.55;5.10;;;11.60;99.90;;;;;;4937243;29;20191;-79
2023/05/20 03:28:01;;;;;;;12.07;4.60;;;11.60;99.90;;;;;;4938429;29;20175;-80
2023/05/20 03:30:28;;;;;;;8.35;4.50;;;11.60;99.90;;;;;;4944999;29;20245;-80
2023/05/20 03:32:58;;;;;;;9.52;4.60;;;11.60;99.90;;;;;;4937170;29;20188;-80
2023/05/20 03:35:25;;;;;;;9.93;4.97;;;11.60;99.90;;;;;;4938293;29;20226;-79
2023/05/20 03:37:52;;;;;;;9.25;4.63;;;11.50;99.90;;;;;;4937233;29;20187;-79
2023/05/20 03:40:20;;;;;;;9.40;4.60;;;11.50;99.90;;;;;;4936827;29;20739;-79
2023/05/20 03:42:47;;;;;;;6.85;4.15;;;11.50;99.90;;;;;;4937098;29;20275;-79
2023/05/20 03:45:13;;;;;;;9.88;4.45;;;11.50;99.90;;;;;;4931710;29;20211;-79
2023/05/20 03:47:56;;;;;;;11.27;4.30;;;11.50;99.90;;;;;;4937011;29;20534;-78
2023/05/20 03:50:22;;;;;;;12.32;4.18;;;11.50;99.90;;;;;;4937998;29;20195;-79
2023/05/20 03:52:48;;;;;;;7.45;4.03;;;11.50;99.90;;;;;;4936849;29;20693;-79
2023/05/20 03:55:16;;;;;;;8.93;3.78;;;11.50;99.90;;;;;;4917929;29;20286;-79
2023/05/20 03:57:42;;;;;;;7.10;4.05;;;11.50;99.90;;;;;;4925123;29;20645;-79
2023/05/20 04:00:10;;;;;;;8.10;4.05;;;11.50;99.90;;;;;;4952597;29;20225;-79
2023/05/20 04:02:42;;;;;;;11.73;3.85;;;11.50;99.90;;;;;;4937772;29;20628;-79
2023/05/20 04:05:09;;;;;;;10.23;4.10;;;11.50;99.90;;;;;;4952651;29;20641;-79
2023/05/20 04:07:37;;;;;;;10.95;3.78;;;11.50;99.90;;;;;;4936864;29;20183;-79
2023/05/20 04:10:04;;;;;;;7.07;3.70;;;11.50;99.90;;;;;;4920870;29;20183;-78
2023/05/20 04:12:31;;;;;;;7.53;3.50;;;11.50;99.90;;;;;;4920473;29;20191;-78
2023/05/20 04:15:01;;;;;;;15.18;4.15;;;11.50;99.90;;;;;;4920828;29;20258;-78
2023/05/20 04:17:29;;;;;;;9.85;4.07;;;11.60;99.90;;;;;;4952366;29;20266;-80
2023/05/20 04:19:56;;;;;;;8.68;3.83;;;11.60;99.90;;;;;;4934943;29;20207;-83
2023/05/20 04:22:22;;;;;;;8.65;3.65;;;11.60;99.90;;;;;;4913056;29;20200;-81
2023/05/20 04:24:48;;;;;;;9.93;3.38;;;11.60;99.90;;;;;;4935526;29;20194;-82
2023/05/20 04:27:15;;;;;;;11.10;3.88;;;11.60;99.90;;;;;;4939765;29;20188;-82
2023/05/20 04:29:44;;;;;;;7.05;3.38;;;11.70;99.90;;;;;;4949391;28;20190;-79
2023/05/20 04:32:18;;;;;;;6.88;3.42;;;11.70;99.90;;;;;;4947860;29;20226;-82
2023/05/20 04:34:45;;;;;;;9.05;3.20;;;11.70;99.90;;;;;;4912547;29;20243;-83
2023/05/20 04:37:12;;;;;;;6.13;3.17;;;11.70;99.90;;;;;;4897736;29;20294;-82
2023/05/20 04:39:39;;;;;;;10.23;2.80;;;11.80;99.90;;;;;;4934215;29;20274;-83
2023/05/20 04:42:06;;;;;;;8.52;3.10;;;11.80;99.90;;;;;;4918243;29;20285;-81
2023/05/20 04:44:32;;;;;;;7.90;3.00;;;11.80;99.90;;;;;;4950267;29;20679;-81
2023/05/20 04:46:58;;;;;;;4.43;3.20;;;11.90;99.90;;;;;;4934634;29;20563;-83
2023/05/20 04:49:33;;;;;;;6.38;2.75;;;11.90;99.90;;;;;;4918228;29;20273;-81
2023/05/20 04:51:59;;;;;;;5.07;2.88;;;11.90;99.90;;;;;;4932777;29;20226;-81
2023/05/20 04:54:25;;;;;;;4.95;3.00;;;12.00;99.90;;;;;;4932041;29;20187;-82
2023/05/20 04:56:51;;;;;;;4.57;2.58;;;12.00;99.90;;;;;;4930877;29;20207;-81
2023/05/20 04:59:17;;;;;;;5.32;2.78;;;12.00;99.90;;;;;;4916888;29;20198;-82
2023/05/20 05:01:43;;;;;;;7.40;2.67;;;12.00;99.90;;;;;;4933660;29;20218;-82
2023/05/20 05:04:09;;;;;;;4.63;2.42;;;12.00;99.90;;;;;;4933623;29;20191;-83
2023/05/20 05:06:35;;;;;;;7.10;2.72;;;12.10;99.90;;;;;;4942097;29;20190;-81
2023/05/20 05:09:01;;;;;;;5.07;2.50;;;12.10;99.90;;;;;;4934456;29;20203;-81
2023/05/20 05:11:27;;;;;;;4.15;2.25;;;12.10;99.90;;;;;;4931264;29;20182;-81
2023/05/20 05:13:54;;;;;;;5.35;2.58;;;12.10;99.90;;;;;;4918238;29;20649;-82
2023/05/20 05:16:22;;;;;;;3.70;2.45;;;12.20;99.90;;;;;;4926230;29;20290;-81
2023/05/20 05:18:48;;;;;;;5.90;2.60;;;12.20;99.90;;;;;;4914973;29;20283;-81
2023/05/20 05:21:14;;;;;;;6.07;2.60;;;12.20;99.90;;;;;;4902039;29;20215;-82
2023/05/20 05:23:41;;;;;;;6.18;2.47;;;12.30;99.90;;;;;;4942451;29;20657;-82
2023/05/20 05:26:07;;;;;;;4.82;2.50;;;12.30;99.90;;;;;;4947139;29;20187;-82
2023/05/20 05:28:34;;;;;;;5.90;2.65;;;12.30;99.90;;;;;;4929781;29;20710;-82
2023/05/20 05:31:01;;;;;;;5.40;2.40;;;12.40;99.90;;;;;;4915222;29;20199;-81
2023/05/20 05:33:27;;;;;;;7.03;2.35;;;12.40;99.90;;;;;;4932789;29;20195;-83
2023/05/20 05:35:55;;;;;;;4.00;2.30;;;12.40;99.90;;;;;;4932746;29;20238;-82
2023/05/20 05:38:21;;;;;;;4.90;2.45;;;12.50;99.90;;;;;;4916527;29;20199;-81
2023/05/20 05:40:47;;;;;;;5.22;2.38;;;12.60;99.90;;;;;;4933976;29;20215;-81
2023/05/20 05:43:14;;;;;;;6.07;2.33;;;12.70;99.90;;;;;;4932426;29;20206;-82
2023/05/20 05:45:41;;;;;;;3.65;2.30;;;12.80;99.90;;;;;;4936482;29;20187;-83
2023/05/20 05:48:07;;;;;;;4.28;2.20;;;12.90;99.90;;;;;;4931289;29;20195;-82
2023/05/20 05:50:33;;;;;;;3.10;2.08;;;12.90;99.90;;;;;;4917619;29;20195;-82
2023/05/20 05:53:00;;;;;;;5.93;2.28;;;13.00;99.90;;;;;;4900924;29;20234;-82
2023/05/20 05:55:25;;;;;;;4.47;2.05;;;13.10;99.90;;;;;;4931807;29;20203;-82
2023/05/20 05:57:53;;;;;;;2.20;1.83;;;13.10;99.90;;;;;;4921563;29;20294;-81
2023/05/20 06:00:19;;;;;;;3.65;2.20;;;13.20;99.90;;;;;;4932846;29;20721;-83
2023/05/20 06:02:46;;;;;;;6.57;2.03;;;13.20;99.90;;;;;;4930418;29;20725;-81
2023/05/20 06:05:21;;;;;;;2.75;1.70;;;13.30;99.90;;;;;;4933685;29;20200;-82
2023/05/20 06:07:47;;;;;;;3.70;1.98;;;13.30;99.90;;;;;;4917237;29;20195;-82
2023/05/20 06:10:13;;;;;;;3.30;2.10;;;13.40;99.90;;;;;;4903443;29;20271;-81
2023/05/20 06:12:39;;;;;;;5.07;2.15;;;13.40;99.90;;;;;;4931188;29;20282;-81
2023/05/20 06:15:06;;;;;;;4.13;2.13;;;13.40;99.90;;;;;;4932215;29;20272;-84
2023/05/20 06:17:32;;;;;;;2.42;1.73;;;13.50;99.90;;;;;;4926696;29;20195;-82
2023/05/20 06:19:58;;;;;;;3.35;2.00;;;13.50;99.90;;;;;;4916973;29;20627;-84
2023/05/20 06:22:24;;;;;;;3.53;1.73;;;13.60;99.90;;;;;;4916033;29;20331;-82
2023/05/20 06:24:50;;;;;;;3.33;2.00;;;13.60;99.90;;;;;;4925231;29;20669;-83
2023/05/20 06:27:16;;;;;;;3.45;1.85;;;13.70;99.90;;;;;;4939155;29;20734;-86
2023/05/20 06:29:43;;;;;;;2.72;1.55;;;13.70;99.90;;;;;;4949041;29;20563;-81
2023/05/20 06:32:09;;;;;;;4.55;1.65;;;13.70;99.90;;;;;;4926626;29;20201;-82
2023/05/20 06:34:35;;;;;;;3.67;1.73;;;13.80;99.90;;;;;;4916481;29;20219;-83
2023/05/20 06:37:01;;;;;;;6.57;1.98;;;13.80;99.90;;;;;;4935473;29;20211;-83
2023/05/20 06:39:27;;;;;;;4.13;1.98;;;13.90;99.90;;;;;;4936169;29;20715;-82
2023/05/20 06:41:53;;;;;;;5.35;1.80;;;13.90;99.90;;;;;;4918081;29;20231;-84
2023/05/20 06:44:27;;;;;;;4.45;1.88;;;14.00;99.90;;;;;;4949240;29;20188;-82
2023/05/20 06:47:00;;;;;;;4.00;1.75;;;14.00;99.90;;;;;;4934845;29;20188;-81
2023/05/20 06:49:27;;;;;;;2.80;2.00;;;14.10;99.90;;;;;;4945859;29;20199;-82
2023/05/20 06:51:53;;;;;;;3.55;1.90;;;14.10;99.90;;;;;;4929493;29;20326;-82
2023/05/20 06:54:20;;;;;;;4.63;2.05;;;14.20;99.90;;;;;;4929820;29;20625;-80
2023/05/20 06:56:47;;;;;;;3.47;1.80;;;14.30;99.90;;;;;;4930780;29;20188;-80
2023/05/20 06:59:13;;;;;;;6.25;1.83;;;14.30;99.90;;;;;;4921647;29;20187;-83
2023/05/20 07:01:39;;;;;;;4.07;1.98;;;14.40;99.90;;;;;;4944915;29;20273;-82
2023/05/20 07:04:06;;;;;;;3.78;1.77;;;14.50;99.90;;;;;;4950984;29;20223;-83
2023/05/20 07:06:32;;;;;;;3.47;1.90;;;14.50;99.90;;;;;;4944175;29;20195;-83
2023/05/20 07:08:59;;;;;;;4.25;1.98;;;14.60;99.90;;;;;;4950748;29;20559;-81
2023/05/20 07:11:25;;;;;;;6.35;2.13;;;14.70;99.90;;;;;;4923977;29;20187;-83
2023/05/20 07:13:52;;;;;;;8.10;2.03;;;14.90;99.90;;;;;;4937171;29;20203;-83
2023/05/20 07:16:18;;;;;;;4.75;1.92;;;15.10;99.90;;;;;;4934886;29;20214;-82
2023/05/20 07:18:49;;;;;;;5.00;2.33;;;15.00;99.90;;;;;;4920349;29;20219;-82
2023/05/20 07:21:14;;;;;;;7.22;2.00;;;15.20;99.90;;;;;;4920900;29;20392;-82
2023/05/20 07:23:52;;;;;;;4.10;2.25;;;15.30;99.90;;;;;;4920911;29;20294;-83
2023/05/20 07:26:18;;;;;;;4.47;2.20;;;15.50;99.90;;;;;;4934760;29;20649;-83
2023/05/20 07:28:44;;;;;;;5.53;2.13;;;15.60;99.90;;;;;;4939230;29;20191;-81
2023/05/20 07:31:10;;;;;;;6.50;2.15;;;15.80;99.90;;;;;;4919646;29;20203;-80
2023/05/20 07:33:41;;;;;;;3.58;2.35;;;15.90;99.90;;;;;;4920399;29;20192;-81
2023/05/20 07:36:07;;;;;;;3.13;2.10;;;16.00;99.90;;;;;;4934370;29;20228;-80
2023/05/20 07:38:33;;;;;;;5.05;1.95;;;16.20;99.90;;;;;;4933146;29;20199;-79
2023/05/20 07:41:03;;;;;;;4.38;2.92;;;16.30;99.90;;;;;;4919178;29;20233;-82
2023/05/20 07:43:29;;;;;;;5.35;2.00;;;16.40;99.90;;;;;;4934328;29;20187;-80
2023/05/20 07:45:55;;;;;;;5.10;2.40;;;16.50;99.90;;;;;;4933670;29;20278;-80
2023/05/20 07:48:21;;;;;;;4.93;2.45;;;16.60;99.90;;;;;;4933044;29;20278;-81
2023/05/20 07:50:47;;;;;;;5.85;2.20;;;16.70;99.90;;;;;;4940671;29;20287;-80
2023/05/20 07:53:13;;;;;;;4.65;1.92;;;16.80;99.90;;;;;;4934404;29;20242;-83
2023/05/20 07:55:39;;;;;;;5.47;2.20;;;17.00;99.90;;;;;;4943563;29;20195;-79
2023/05/20 07:58:05;;;;;;;6.15;2.28;;;17.00;99.90;;;;;;4934839;29;20179;-85
2023/05/20 08:00:33;;;;;;;4.20;2.15;;;17.20;99.90;;;;;;4944059;29;20713;-82
2023/05/20 08:03:02;;;;;;;7.68;2.30;;;17.40;99.90;;;;;;4932024;29;20195;-81
2023/05/20 08:05:37;;;;;;;5.75;1.95;;;17.50;99.90;;;;;;4950821;29;20270;-81
2023/05/20 08:08:04;;;;;;;6.13;2.20;;;17.60;99.90;;;;;;4935022;29;20191;-82
2023/05/20 08:10:41;;;;;;;4.38;1.80;;;17.70;99.90;;;;;;4942641;29;20430;-83
2023/05/20 08:13:07;;;;;;;3.50;2.00;;;17.70;99.90;;;;;;4916674;29;20212;-83
2023/05/20 08:15:35;;;;;;;5.93;2.13;;;17.80;99.90;;;;;;4941525;29;20633;-83
2023/05/20 08:18:01;;;;;;;5.20;2.90;;;18.00;99.90;;;;;;4936040;29;20186;-81
2023/05/20 08:20:28;;;;;;;5.72;2.75;;;18.10;99.90;;;;;;4936116;29;20219;-82
2023/05/20 08:22:55;;;;;;;4.95;2.17;;;18.30;99.50;;;;;;4932311;29;20199;-82
2023/05/20 08:25:22;;;;;;;5.40;1.75;;;18.40;98.80;;;;;;4919394;29;20180;-81
2023/05/20 08:27:50;;;;;;;4.05;2.10;;;18.50;98.60;;;;;;4936029;29;20279;-82
2023/05/20 08:30:16;;;;;;;5.78;1.92;;;18.60;98.30;;;;;;4935931;29;20195;-84
2023/05/20 08:32:42;;;;;;;3.75;2.20;;;18.70;98.10;;;;;;4918639;29;20192;-80
2023/05/20 08:35:08;;;;;;;2.85;2.00;;;18.80;97.80;;;;;;4937093;29;20187;-79
2023/05/20 08:37:35;;;;;;;3.60;2.05;;;18.90;97.50;;;;;;4951786;29;20222;-80
2023/05/20 08:40:02;;;;;;;6.10;2.55;;;19.00;97.10;;;;;;4951751;29;20371;-79
2023/05/20 08:42:28;;;;;;;3.55;1.95;;;19.00;96.70;;;;;;4935731;29;20645;-79
2023/05/20 08:44:57;;;;;;;8.43;2.17;;;19.00;96.10;;;;;;4930048;29;20196;-82
2023/05/20 08:47:25;;;;;;;5.35;2.15;;;19.00;96.00;;;;;;4948552;29;20195;-81
2023/05/20 08:49:51;;;;;;;4.60;2.28;;;19.00;95.90;;;;;;4934909;29;20215;-80
2023/05/20 08:52:20;;;;;;;3.08;1.90;;;19.10;96.20;;;;;;4935137;29;20265;-81
2023/05/20 08:54:48;;;;;;;3.17;1.90;;;19.30;95.90;;;;;;4913863;29;20203;-81
2023/05/20 08:57:14;;;;;;;5.47;2.20;;;19.50;95.40;;;;;;4933966;29;20191;-80
2023/05/20 08:59:45;;;;;;;3.50;2.70;;;19.60;95.00;;;;;;4929509;29;20188;-81
2023/05/20 09:02:12;;;;;;;7.72;3.20;;;19.70;95.10;;;;;;4930744;29;20192;-80
2023/05/20 09:04:37;;;;;;;5.28;2.00;;;19.90;94.30;;;;;;4927039;29;20215;-81
2023/05/20 09:07:03;;;;;;;5.55;2.40;;;20.00;93.70;;;;;;4934326;29;20207;-84
2023/05/20 09:09:32;;;;;;;6.38;3.00;;;20.00;93.60;;;;;;4933780;29;20217;-81
2023/05/20 09:11:59;;;;;;;4.43;2.10;;;20.10;93.40;;;;;;4932736;29;20215;-86
2023/05/20 09:14:27;;;;;;;3.03;2.10;;;20.20;92.80;;;;;;4934745;29;20191;-82
2023/05/20 09:16:53;;;;;;;6.03;2.72;;;20.30;92.60;;;;;;4933608;29;20191;-80
2023/05/20 09:19:23;;;;;;;6.32;2.75;;;20.20;92.50;;;;;;4934564;29;20274;-83
2023/05/20 09:21:54;;;;;;;5.80;1.92;;;20.40;92.50;;;;;;4934689;29;20218;-79
2023/05/20 09:24:23;;;;;;;4.30;2.20;;;20.50;91.90;;;;;;4933451;29;20191;-81
2023/05/20 09:26:49;;;;;;;7.22;2.38;;;20.50;91.40;;;;;;4949417;29;20196;-81
2023/05/20 09:29:14;;;;;;;8.20;1.95;;;20.60;91.20;;;;;;4931727;29;20324;-81
2023/05/20 09:31:40;;;;;;;4.15;2.13;;;20.60;90.80;;;;;;4927488;29;20198;-81
2023/05/20 09:34:06;;;;;;;4.25;2.20;;;20.40;90.40;;;;;;4933653;29;20195;-84
2023/05/20 09:36:34;;;;;;;4.25;2.00;;;20.30;90.30;;;;;;4934038;29;20278;-80
2023/05/20 09:39:04;;;;;;;4.03;2.10;;;20.20;90.60;;;;;;4933416;29;20192;-82
2023/05/20 09:41:38;;;;;;;3.92;2.20;;;20.20;91.10;;;;;;4934839;29;20230;-82
2023/05/20 09:44:05;;;;;;;3.67;2.20;;;20.40;90.90;;;;;;4935084;29;20204;-79
2023/05/20 09:46:33;;;;;;;6.50;2.10;;;20.50;90.60;;;;;;4933757;29;20306;-80
2023/05/20 09:48:59;;;;;;;3.78;2.55;;;20.50;90.30;;;;;;4935590;29;20206;-80
2023/05/20 09:51:28;;;;;;;6.10;2.15;;;20.50;90.30;;;;;;4934821;29;20199;-80
2023/05/20 09:53:55;;;;;;;5.32;2.20;;;20.70;90.40;;;;;;4933583;29;20326;-80
2023/05/20 09:56:24;;;;;;;3.70;2.40;;;20.80;90.10;;;;;;4936216;29;20202;-79
2023/05/20 09:58:51;;;;;;;7.85;2.40;;;21.00;89.50;;;;;;4935516;29;20613;-79
2023/05/20 10:01:17;;;;;;;4.75;2.13;;;21.00;88.80;;;;;;4935621;29;20298;-80
2023/05/20 10:03:44;;;;;;;9.40;2.28;;;21.10;88.90;;;;;;4925112;29;20404;-80
2023/05/20 10:06:09;;;;;;;4.95;2.00;;;21.20;88.30;;;;;;4935503;29;20183;-79
2023/05/20 10:08:50;;;;;;;5.90;2.60;;;21.40;87.40;;;;;;4935530;29;20180;-80
2023/05/20 10:11:39;;;;;;;3.15;2.30;;;21.50;87.00;;;;;;4935568;29;20186;-80
2023/05/20 10:14:11;;;;;;;3.03;2.08;;;21.50;84.90;;;;;;4935329;29;20198;-80
2023/05/20 10:16:55;;;;;;;5.63;2.33;;;21.50;85.30;;;;;;4935501;29;20608;-80
2023/05/20 10:19:30;;;;;;;6.22;2.42;;;21.50;84.80;;;;;;4918572;29;20563;-79
2023/05/20 10:22:03;;;;;;;10.55;2.20;;;21.40;84.80;;;;;;4935802;29;20195;-79
2023/05/20 10:24:34;;;;;;;5.65;2.50;;;21.50;85.30;;;;;;4934970;29;20184;-79
2023/05/20 10:27:02;;;;;;;8.90;2.40;;;21.50;86.00;;;;;;4935845;29;20190;-85
2023/05/20 10:29:28;;;;;;;6.05;2.10;;;21.60;86.40;;;;;;4934309;29;20179;-79
2023/05/20 10:31:54;;;;;;;9.52;2.75;;;21.60;86.30;;;;;;4936416;29;20620;-80
2023/05/20 10:34:22;;;;;;;4.47;2.40;;;21.60;86.50;;;;;;4937663;29;20275;-78
2023/05/20 10:36:54;;;;;;;9.38;2.90;;;21.60;87.00;;;;;;4942378;29;20175;-79
2023/05/20 10:39:31;;;;;;;5.47;2.40;;;21.60;87.70;;;;;;4939663;29;20664;-81
2023/05/20 10:42:07;;;;;;;6.15;2.83;;;21.60;87.40;;;;;;4938742;29;20219;-81
2023/05/20 10:44:42;;;;;;;6.63;2.40;;;21.60;87.40;;;;;;4938609;29;20637;-81
2023/05/20 10:47:09;;;;;;;4.47;2.95;;;21.60;87.20;;;;;;4938803;29;20190;-81
2023/05/20 10:49:35;;;;;;;5.32;2.88;;;21.60;87.00;;;;;;4937775;29;20531;-82
2023/05/20 10:52:02;;;;;;;5.78;2.63;;;21.60;86.80;;;;;;4937516;29;20626;-80
2023/05/20 10:54:28;;;;;;;3.65;2.15;;;21.60;86.90;;;;;;4938540;29;20199;-80
2023/05/20 10:56:54;;;;;;;3.42;2.33;;;21.50;87.20;;;;;;4938422;29;20187;-81
2023/05/20 10:59:20;;;;;;;6.88;2.80;;;21.50;87.30;;;;;;4938252;29;20635;-81
2023/05/20 11:01:47;;;;;;;7.07;3.03;;;21.40;87.90;;;;;;4938462;29;20223;-81
2023/05/20 11:04:15;;;;;;;4.22;2.67;;;21.40;88.50;;;;;;4938840;29;20218;-81
2023/05/20 11:06:55;;;;;;;9.55;3.03;;;21.40;88.90;;;;;;4937314;29;20298;-82
2023/05/20 11:09:22;;;;;;;7.35;3.17;;;21.40;89.20;;;;;;4938756;29;20170;-80
2023/05/20 11:11:53;;;;;;;6.63;2.20;;;21.30;89.40;;;;;;4938225;29;20183;-80
2023/05/20 11:14:20;;;;;;;6.85;2.88;;;21.20;89.50;;;;;;4938555;29;20230;-83
2023/05/20 11:16:45;;;;;;;4.53;2.58;;;21.20;89.60;;;;;;4936854;29;20628;-80
2023/05/20 11:19:15;;;;;;;7.82;2.40;;;21.20;89.40;;;;;;4938248;29;20194;-80
2023/05/20 11:21:45;;;;;;;5.38;2.95;;;21.20;89.00;;;;;;4936594;29;20362;-80
2023/05/20 11:24:12;;;;;;;7.53;3.58;;;21.20;88.90;;;;;;4936617;29;20184;-81
2023/05/20 11:26:39;;;;;;;9.98;2.80;;;21.20;88.80;;;;;;4937125;29;20187;-79
2023/05/20 11:29:04;;;;;;;5.80;4.05;;;21.20;89.30;;;;;;4938018;29;20179;-81
2023/05/20 11:31:31;;;;;;;10.35;4.10;;;21.20;89.60;;;;;;4938116;29;20191;-80
2023/05/20 11:34:00;;;;;;;12.82;3.03;;;21.10;89.70;;;;;;4936982;29;20203;-80
2023/05/20 11:36:27;;;;;;;8.05;3.10;;;21.00;90.10;;;;;;4936634;29;20546;-80
2023/05/20 11:38:54;;;;;;;7.97;3.50;;;21.00;90.50;;;;;;4936744;29;20192;-80
2023/05/20 11:41:26;;;;;;;11.10;3.25;;;21.00;90.90;;;;;;4936660;29;20302;-80
2023/05/20 11:43:59;;;;;;;7.30;3.35;;;21.00;91.30;;;;;;4936528;29;20187;-81
2023/05/20 11:46:26;;;;;;;5.53;2.63;;;21.10;91.40;;;;;;4936340;29;20180;-80
2023/05/20 11:48:55;;;;;;;8.10;3.50;;;21.10;91.60;;;;;;4937457;29;20191;-80
2023/05/20 11:51:28;;;;;;;5.93;3.22;;;21.20;91.60;;;;;;4937512;29;20273;-79
2023/05/20 11:54:05;;;;;;;8.00;2.88;;;21.20;91.70;;;;;;4936291;29;20242;-80
2023/05/20 11:56:36;;;;;;;5.53;3.03;;;21.20;91.80;;;;;;4925717;29;20373;-81
2023/05/20 11:59:03;;;;;;;7.68;3.90;;;21.20;91.80;;;;;;4925958;29;20175;-80
2023/05/20 12:01:32;;;;;;;9.82;3.60;;;21.20;91.80;;;;;;4935492;29;20219;-81
2023/05/20 12:03:58;;;;;;;10.55;3.30;;;21.20;91.80;;;;;;4937021;29;20187;-80
2023/05/20 12:06:24;;;;;;;6.22;3.17;;;21.30;91.90;;;;;;4935284;29;20211;-80
2023/05/20 12:08:50;;;;;;;7.43;2.75;;;21.30;91.80;;;;;;4950955;29;20670;-81
2023/05/20 12:11:16;;;;;;;8.68;3.30;;;21.40;91.80;;;;;;4937378;29;20227;-81
2023/05/20 12:13:42;;;;;;;10.60;3.53;;;21.40;91.70;;;;;;4937166;29;20270;-81
2023/05/20 12:16:08;;;;;;;7.47;3.10;;;21.40;91.40;;;;;;4935906;29;20188;-80
2023/05/20 12:18:34;;;;;;;6.95;3.13;;;21.50;91.30;;;;;;4920118;29;20266;-81
2023/05/20 12:21:00;;;;;;;7.47;3.35;;;21.50;91.20;;;;;;4937006;29;20571;-80
2023/05/20 12:23:28;;;;;;;6.38;2.90;;;21.50;91.10;;;;;;4935580;29;20626;-81
2023/05/20 12:25:53;;;;;;;7.70;3.60;;;21.50;91.70;;;;;;4952024;29;20282;-80
2023/05/20 12:28:19;;;;;;;12.02;4.78;;;21.50;91.50;;;;;;4935656;29;20211;-81
2023/05/20 12:30:45;;;;;;;11.05;4.35;;;21.40;91.60;;;;;;4918215;29;20201;-81
2023/05/20 12:33:11;;;;;;;12.07;3.72;;;21.40;91.70;;;;;;4917714;29;20187;-81
2023/05/20 12:35:41;;;;;;;10.07;4.38;;;21.30;91.70;;;;;;4936664;29;20292;-80
2023/05/20 12:38:08;;;;;;;8.25;5.18;;;21.30;91.90;;;;;;4936498;29;20250;-81
2023/05/20 12:40:35;;;;;;;12.82;6.13;;;21.20;92.10;;;;;;4935135;29;20261;-81
2023/05/20 12:43:02;;;;;;;10.30;4.70;;;21.10;92.20;;;;;;4936847;29;20190;-81
2023/05/20 12:45:28;;;;;;;6.85;3.72;;;21.10;92.30;;;;;;4935995;29;20223;-80